Annville, Pennsylvania
Current Conditions -  °F | °C
As of 6:58 AM on Monday 26 Jan 2015 (Local Time) from KMUI Reporting Station
Overcast Overcast  
Wind Chill: 10°   Ceiling: 1700
Heat Index: 22°   Visibility: 10mi
Dew Point: 17°   Wind: 13mph
Humidity: 82%   Direction: 70°ENE
Pressure: 29.88"   Gusts: NA
Location:  40.33°N, 76.51°W
Report Text: KMUI 261158Z AUTO 07011KT 10SM OVC017 M05/M08 A2988 RMK AO2 UPB1129E1148DZE1129B1148E1153 SLP127 P0000 60008 70011 T10541081 11027 21054 56009
Loading
Personal Weather Stations






























Interactive Weather Map New forecast layout! Learn more

10-Day Weather Forecast

Advertisements
Track Severe Weather on mobile